createdAt,value
2018-04-24T00:00:46.076Z,13.10
2018-04-24T00:03:13.484Z,13.10
2018-04-24T00:05:40.915Z,13.11
2018-04-24T00:08:08.312Z,13.10
2018-04-24T00:10:35.719Z,13.08
2018-04-24T00:13:03.144Z,13.03
2018-04-24T00:15:30.564Z,13.01
2018-04-24T00:17:57.976Z,13.00
2018-04-24T00:20:25.406Z,12.98
2018-04-24T00:22:52.814Z,12.97
2018-04-24T00:25:20.229Z,12.96
2018-04-24T00:27:47.642Z,12.96
2018-04-24T00:30:15.081Z,12.97
2018-04-24T00:32:42.523Z,12.98
2018-04-24T00:35:09.939Z,12.99
2018-04-24T00:37:37.343Z,12.97
2018-04-24T00:40:04.770Z,12.96
2018-04-24T00:42:32.184Z,12.94
2018-04-24T00:44:59.640Z,12.91
2018-04-24T00:47:27.080Z,12.87
2018-04-24T00:49:54.795Z,12.84
2018-04-24T00:52:22.195Z,12.79
2018-04-24T00:54:49.602Z,12.76
2018-04-24T00:57:17.020Z,12.74
2018-04-24T00:59:44.432Z,12.70
2018-04-24T01:02:11.866Z,12.67
2018-04-24T01:04:39.272Z,12.62
2018-04-24T01:07:06.972Z,12.58
2018-04-24T01:09:34.372Z,12.55
2018-04-24T01:12:01.787Z,12.53
2018-04-24T01:14:29.207Z,12.50
2018-04-24T01:16:56.619Z,12.46
2018-04-24T01:19:24.067Z,12.45
2018-04-24T01:21:51.476Z,12.46
2018-04-24T01:24:18.916Z,12.43
2018-04-24T01:26:46.332Z,12.44
2018-04-24T01:29:13.756Z,12.45
2018-04-24T01:31:41.174Z,12.43
2018-04-24T01:34:08.621Z,12.42
2018-04-24T01:36:36.028Z,12.41
2018-04-24T01:39:03.432Z,12.43
2018-04-24T01:41:30.860Z,12.40
2018-04-24T01:43:58.270Z,12.37
2018-04-24T01:46:25.756Z,12.37
2018-04-24T01:48:53.169Z,12.37
2018-04-24T01:51:20.590Z,12.35
2018-04-24T01:53:48.039Z,12.36
2018-04-24T01:56:15.463Z,12.31
2018-04-24T01:58:42.896Z,12.31
2018-04-24T02:01:10.326Z,12.24
2018-04-24T02:03:37.963Z,12.26
2018-04-24T02:06:05.369Z,12.25
2018-04-24T02:08:32.783Z,12.25
2018-04-24T02:11:00.207Z,12.26
2018-04-24T02:13:27.611Z,12.24
2018-04-24T02:15:55.217Z,12.24
2018-04-24T02:18:22.635Z,12.21
2018-04-24T02:20:50.039Z,12.20
2018-04-24T02:23:17.476Z,12.19
2018-04-24T02:25:44.883Z,12.18
2018-04-24T02:28:12.307Z,12.15
2018-04-24T02:30:39.720Z,12.11
2018-04-24T02:33:07.155Z,12.10
2018-04-24T02:35:34.662Z,12.14
2018-04-24T02:38:01.995Z,12.13
2018-04-24T02:40:29.523Z,12.12
2018-04-24T02:42:56.840Z,12.09
2018-04-24T02:45:24.432Z,12.05
2018-04-24T02:47:51.851Z,11.99
2018-04-24T02:50:19.259Z,11.90
2018-04-24T02:52:46.694Z,11.88
2018-04-24T02:55:14.146Z,11.81
2018-04-24T02:57:41.576Z,11.81
2018-04-24T03:00:08.999Z,11.73
2018-04-24T03:02:36.436Z,11.75
2018-04-24T03:05:03.838Z,11.75
2018-04-24T03:07:31.284Z,11.69
2018-04-24T03:09:58.702Z,11.78
2018-04-24T03:12:26.128Z,11.82
2018-04-24T03:14:53.540Z,11.83
2018-04-24T03:17:21.111Z,11.77
2018-04-24T03:19:48.520Z,11.80
2018-04-24T03:22:15.949Z,11.83
2018-04-24T03:24:43.439Z,11.81
2018-04-24T03:27:10.877Z,11.83
2018-04-24T03:29:38.283Z,11.87
2018-04-24T03:32:05.724Z,11.87
2018-04-24T03:34:33.135Z,11.84
2018-04-24T03:37:00.899Z,11.82
2018-04-24T03:39:28.331Z,11.95
2018-04-24T03:41:55.739Z,11.91
2018-04-24T03:44:23.171Z,11.87
2018-04-24T03:46:50.591Z,11.84
2018-04-24T03:49:18.040Z,11.85
2018-04-24T03:51:45.449Z,11.79
2018-04-24T03:54:12.928Z,11.74
2018-04-24T03:56:40.341Z,11.74
2018-04-24T03:59:07.775Z,11.71
2018-04-24T04:01:35.195Z,11.70
2018-04-24T04:04:02.632Z,11.65
2018-04-24T04:06:30.349Z,11.61
2018-04-24T04:08:57.758Z,11.52
2018-04-24T04:11:25.175Z,11.53
2018-04-24T04:13:52.617Z,11.46
2018-04-24T04:16:20.422Z,11.52
2018-04-24T04:18:59.496Z,11.50
2018-04-24T04:24:49.757Z,11.52
2018-04-24T04:27:17.169Z,11.52
2018-04-24T04:29:44.944Z,11.49
2018-04-24T04:32:12.362Z,11.56
2018-04-24T04:34:39.777Z,11.58
2018-04-24T04:37:07.216Z,11.64
2018-04-24T04:39:34.623Z,11.70
2018-04-24T04:42:02.056Z,11.77
2018-04-24T04:44:29.467Z,11.83
2018-04-24T04:46:56.897Z,11.90
2018-04-24T04:49:24.320Z,11.96
2018-04-24T04:51:51.732Z,12.00
2018-04-24T04:54:19.158Z,12.14
2018-04-24T04:56:46.561Z,12.20
2018-04-24T04:59:14.001Z,12.28
2018-04-24T05:01:41.408Z,12.41
2018-04-24T05:04:09.120Z,12.56
2018-04-24T05:06:36.515Z,12.92
2018-04-24T05:09:03.928Z,12.93
2018-04-24T05:11:31.352Z,12.80
2018-04-24T05:13:59.096Z,12.63
2018-04-24T05:16:26.504Z,12.61
2018-04-24T05:18:53.907Z,12.66
2018-04-24T05:21:21.337Z,12.52
2018-04-24T05:23:48.756Z,12.51
2018-04-24T05:26:16.161Z,12.46
2018-04-24T05:28:43.578Z,12.37
2018-04-24T05:31:11.257Z,12.37
2018-04-24T05:33:38.679Z,12.36
2018-04-24T05:36:06.087Z,12.39
2018-04-24T05:38:33.504Z,12.41
2018-04-24T05:41:00.910Z,12.54
2018-04-24T05:43:28.424Z,12.57
2018-04-24T05:45:55.827Z,12.65
2018-04-24T05:48:23.251Z,12.66
2018-04-24T05:50:50.661Z,12.66
2018-04-24T05:53:18.101Z,12.59
2018-04-24T05:55:45.495Z,12.68
2018-04-24T05:58:12.934Z,12.76
2018-04-24T06:00:40.717Z,12.77
2018-04-24T06:03:08.159Z,12.69
2018-04-24T06:05:35.556Z,12.65
2018-04-24T06:08:02.985Z,12.82
2018-04-24T06:10:30.706Z,12.78
2018-04-24T06:12:58.132Z,12.76
2018-04-24T06:15:25.547Z,12.72
2018-04-24T06:17:52.966Z,12.72
2018-04-24T06:20:20.692Z,12.76
2018-04-24T06:22:48.108Z,12.75
2018-04-24T06:25:15.516Z,12.69
2018-04-24T06:27:42.935Z,12.62
2018-04-24T06:30:10.349Z,12.57
2018-04-24T06:32:37.805Z,12.49
2018-04-24T06:35:05.223Z,12.52
2018-04-24T06:37:32.629Z,12.46
2018-04-24T06:40:00.292Z,12.47
2018-04-24T06:42:27.692Z,12.52
2018-04-24T06:44:55.092Z,12.53
2018-04-24T06:47:22.517Z,12.62
2018-04-24T06:49:50.210Z,12.71
2018-04-24T06:52:17.650Z,12.76
2018-04-24T06:54:45.082Z,12.82
2018-04-24T06:57:12.590Z,12.96
2018-04-24T06:59:39.995Z,13.07
2018-04-24T07:02:07.426Z,13.12
2018-04-24T07:04:35.552Z,13.14
2018-04-24T07:07:03.076Z,13.09
2018-04-24T07:09:30.487Z,13.11
2018-04-24T07:11:57.927Z,13.18
2018-04-24T07:14:26.355Z,13.34
2018-04-24T07:16:53.866Z,13.26
2018-04-24T07:19:21.699Z,13.38
2018-04-24T07:21:49.099Z,13.31
2018-04-24T07:24:16.971Z,13.26
2018-04-24T07:26:44.382Z,13.25
2018-04-24T07:29:11.780Z,13.20
2018-04-24T07:31:39.793Z,13.06
2018-04-24T07:34:07.202Z,13.08
2018-04-24T07:36:34.629Z,13.05
2018-04-24T07:39:02.047Z,12.92
2018-04-24T07:41:29.977Z,12.78
2018-04-24T07:43:57.397Z,12.78
2018-04-24T07:46:24.817Z,12.65
2018-04-24T07:48:52.448Z,12.79
2018-04-24T07:51:19.867Z,12.82
2018-04-24T07:53:47.280Z,12.77
2018-04-24T07:56:14.724Z,12.81
2018-04-24T07:58:42.151Z,12.81
2018-04-24T08:01:09.592Z,12.79
2018-04-24T08:03:36.991Z,12.77
2018-04-24T08:06:04.447Z,12.83
2018-04-24T08:08:31.880Z,12.82
2018-04-24T08:10:59.310Z,12.85
2018-04-24T08:13:27.235Z,12.90
2018-04-24T08:15:54.645Z,12.85
2018-04-24T08:18:22.052Z,12.84
2018-04-24T08:20:49.483Z,12.90
2018-04-24T08:23:16.941Z,12.94
2018-04-24T08:25:44.380Z,13.04
2018-04-24T08:28:11.796Z,13.02
2018-04-24T08:30:39.246Z,13.02
2018-04-24T08:33:06.681Z,12.92
2018-04-24T08:35:34.134Z,12.90
2018-04-24T08:38:01.553Z,12.99
2018-04-24T08:40:28.963Z,13.02
2018-04-24T08:42:57.648Z,13.11
2018-04-24T08:45:25.069Z,13.11
2018-04-24T08:47:52.593Z,13.16
2018-04-24T08:50:19.956Z,13.19
2018-04-24T08:52:47.366Z,13.28
2018-04-24T08:55:14.816Z,13.40
2018-04-24T08:57:42.283Z,13.47
2018-04-24T09:00:09.687Z,13.54
2018-04-24T09:02:37.101Z,13.60
2018-04-24T09:05:04.845Z,13.63
2018-04-24T09:07:32.252Z,13.66
2018-04-24T09:09:59.659Z,13.70
2018-04-24T09:12:27.150Z,13.77
2018-04-24T09:14:54.595Z,13.74
2018-04-24T09:17:22.018Z,13.83
2018-04-24T09:19:49.560Z,13.89
2018-04-24T09:22:17.027Z,13.88
2018-04-24T09:24:44.436Z,13.94
2018-04-24T09:27:12.012Z,13.83
2018-04-24T09:29:39.433Z,13.98
2018-04-24T09:32:07.006Z,14.10
2018-04-24T09:34:34.503Z,14.13
2018-04-24T09:37:01.984Z,14.24
2018-04-24T09:39:29.731Z,14.37
2018-04-24T09:41:58.146Z,14.61
2018-04-24T09:44:25.580Z,14.67
2018-04-24T09:46:53.012Z,14.87
2018-04-24T09:49:20.463Z,15.02
2018-04-24T09:51:48.219Z,15.20
2018-04-24T09:54:15.653Z,15.37
2018-04-24T09:56:43.279Z,15.36
2018-04-24T09:59:11.555Z,15.37
2018-04-24T10:01:39.886Z,15.32
2018-04-24T10:04:07.340Z,15.33
2018-04-24T10:06:34.760Z,15.23
2018-04-24T10:09:02.303Z,15.29
2018-04-24T10:11:29.704Z,15.45
2018-04-24T10:13:57.451Z,15.60
2018-04-24T10:16:24.881Z,15.69
2018-04-24T10:18:52.301Z,15.68
2018-04-24T10:21:19.722Z,15.61
2018-04-24T10:23:47.580Z,15.57
2018-04-24T10:26:15.035Z,15.57
2018-04-24T10:28:42.452Z,15.52
2018-04-24T10:31:10.420Z,15.58
2018-04-24T10:33:37.845Z,15.55
2018-04-24T10:36:05.275Z,15.42
2018-04-24T10:38:32.708Z,15.32
2018-04-24T10:41:00.141Z,15.21
2018-04-24T10:43:27.552Z,15.08
2018-04-24T10:45:54.983Z,14.94
2018-04-24T10:48:22.892Z,14.88
2018-04-24T10:50:50.325Z,14.86
2018-04-24T10:53:17.728Z,14.81
2018-04-24T10:55:45.259Z,14.81
2018-04-24T10:58:12.680Z,14.83
2018-04-24T11:00:40.571Z,14.80
2018-04-24T11:03:08.024Z,14.84
2018-04-24T11:05:35.436Z,14.85
2018-04-24T11:08:02.879Z,14.75
2018-04-24T11:10:30.281Z,14.84
2018-04-24T11:12:58.969Z,14.75
2018-04-24T11:15:26.398Z,14.85
2018-04-24T11:17:53.832Z,14.87
2018-04-24T11:20:21.432Z,15.04
2018-04-24T11:22:48.843Z,15.17
2018-04-24T11:25:16.357Z,15.31
2018-04-24T11:27:43.811Z,15.36
2018-04-24T11:30:11.312Z,15.36
2018-04-24T11:32:38.997Z,15.44
2018-04-24T11:35:06.428Z,15.50
2018-04-24T11:37:33.845Z,15.55
2018-04-24T11:40:01.306Z,15.58
2018-04-24T11:42:28.756Z,15.64
2018-04-24T11:44:56.184Z,15.72
2018-04-24T11:47:23.936Z,15.90
2018-04-24T11:49:51.368Z,16.14
2018-04-24T11:52:18.857Z,16.46
2018-04-24T11:54:46.342Z,16.66
2018-04-24T11:57:14.684Z,16.75
2018-04-24T11:59:42.115Z,16.83
2018-04-24T12:02:09.748Z,16.96
2018-04-24T12:04:37.165Z,17.26
2018-04-24T12:07:05.018Z,17.37
2018-04-24T12:09:32.441Z,17.33
2018-04-24T12:11:59.867Z,17.48
2018-04-24T12:14:27.456Z,17.41
2018-04-24T12:16:54.884Z,17.21
2018-04-24T12:19:22.331Z,17.17
2018-04-24T12:21:49.740Z,17.02
2018-04-24T12:24:18.309Z,16.89
2018-04-24T12:26:45.716Z,16.66
2018-04-24T12:29:13.135Z,16.55
2018-04-24T12:31:40.576Z,16.47
2018-04-24T12:34:08.001Z,16.36
2018-04-24T12:36:35.487Z,16.44
2018-04-24T12:39:02.928Z,16.52
2018-04-24T12:41:30.344Z,16.52
2018-04-24T12:43:58.094Z,16.53
2018-04-24T12:46:25.516Z,16.61
2018-04-24T12:48:52.965Z,16.68
2018-04-24T12:51:20.422Z,16.57
2018-04-24T12:53:47.862Z,16.52
2018-04-24T12:56:15.331Z,16.50
2018-04-24T12:58:42.751Z,16.56
2018-04-24T13:01:10.567Z,16.69
2018-04-24T13:03:37.993Z,16.85
2018-04-24T13:06:05.481Z,17.00
2018-04-24T13:08:32.922Z,17.16
2018-04-24T13:11:00.375Z,17.37
2018-04-24T13:13:28.223Z,17.46
2018-04-24T13:15:55.628Z,17.50
2018-04-24T13:18:23.369Z,17.52
2018-04-24T13:20:50.785Z,17.55
2018-04-24T13:23:18.196Z,17.62
2018-04-24T13:25:45.704Z,17.54
2018-04-24T13:28:13.057Z,17.57
2018-04-24T13:30:40.465Z,17.56
2018-04-24T13:33:08.303Z,17.45
2018-04-24T13:35:35.712Z,17.38
2018-04-24T13:38:03.133Z,17.26
2018-04-24T13:40:30.634Z,17.24
2018-04-24T13:42:58.088Z,17.18
2018-04-24T13:45:25.512Z,17.06
2018-04-24T13:47:52.928Z,17.09
2018-04-24T13:50:20.360Z,17.23
2018-04-24T13:52:47.772Z,17.32
2018-04-24T13:55:15.229Z,17.41
2018-04-24T13:57:42.645Z,17.49
2018-04-24T14:00:10.079Z,17.43
2018-04-24T14:02:37.492Z,17.53
2018-04-24T14:05:04.923Z,17.36
2018-04-24T14:07:32.335Z,17.42
2018-04-24T14:10:00.157Z,17.44
2018-04-24T14:12:27.568Z,17.45
2018-04-24T14:14:55.000Z,17.55
2018-04-24T14:17:22.437Z,17.60
2018-04-24T14:19:49.839Z,17.63
2018-04-24T14:22:17.297Z,17.66
2018-04-24T14:24:44.700Z,17.69
2018-04-24T14:27:12.138Z,17.71
2018-04-24T14:29:39.552Z,17.66
2018-04-24T14:32:07.663Z,17.70
2018-04-24T14:34:35.072Z,17.64
2018-04-24T14:37:02.505Z,17.64
2018-04-24T14:39:29.948Z,17.61
2018-04-24T14:41:57.392Z,17.56
2018-04-24T14:44:24.830Z,17.51
2018-04-24T14:46:52.239Z,17.43
2018-04-24T14:49:19.689Z,17.38
2018-04-24T14:51:47.214Z,17.33
2018-04-24T14:54:14.562Z,17.26
2018-04-24T14:56:41.980Z,17.39
2018-04-24T14:59:09.415Z,17.48
2018-04-24T15:01:36.844Z,17.43
2018-04-24T15:04:04.311Z,17.36
2018-04-24T15:06:46.635Z,17.34
2018-04-24T15:09:14.071Z,17.15
2018-04-24T15:11:41.484Z,17.12
2018-04-24T15:14:08.958Z,17.08
2018-04-24T15:16:36.366Z,17.10
2018-04-24T15:19:04.039Z,17.05
2018-04-24T15:21:31.472Z,17.07
2018-04-24T15:23:58.898Z,17.16
2018-04-24T15:26:26.600Z,17.18
2018-04-24T15:28:54.009Z,17.21
2018-04-24T15:31:21.430Z,17.23
2018-04-24T15:33:48.868Z,17.18
2018-04-24T15:36:16.328Z,17.14
2018-04-24T15:38:43.739Z,17.05
2018-04-24T15:41:11.185Z,17.03
2018-04-24T15:43:38.596Z,16.91
2018-04-24T15:46:06.050Z,16.89
2018-04-24T15:48:33.464Z,16.86
2018-04-24T15:51:01.247Z,16.91
2018-04-24T15:53:28.655Z,16.90
2018-04-24T15:55:56.084Z,16.97
2018-04-24T15:58:23.492Z,16.97
2018-04-24T16:00:50.904Z,16.97
2018-04-24T16:03:18.700Z,16.98
2018-04-24T16:05:46.157Z,16.99
2018-04-24T16:08:13.572Z,16.98
2018-04-24T16:10:41.007Z,16.99
2018-04-24T16:13:08.431Z,16.93
2018-04-24T16:15:35.851Z,16.87
2018-04-24T16:18:03.624Z,16.93
2018-04-24T16:20:31.038Z,16.93
2018-04-24T16:22:58.455Z,16.93
2018-04-24T16:25:25.883Z,16.93
2018-04-24T16:27:53.299Z,16.90
2018-04-24T16:30:20.768Z,16.89
2018-04-24T16:32:48.176Z,16.87
2018-04-24T16:35:15.614Z,16.84
2018-04-24T16:37:43.036Z,16.80
2018-04-24T16:40:10.443Z,16.81
2018-04-24T16:42:37.864Z,16.77
2018-04-24T16:45:05.278Z,16.75
2018-04-24T16:47:32.732Z,16.73
2018-04-24T16:50:00.173Z,16.70
2018-04-24T16:52:27.584Z,16.72
2018-04-24T16:54:55.020Z,16.70
2018-04-24T16:57:22.428Z,16.63
2018-04-24T16:59:49.884Z,16.65
2018-04-24T17:02:17.304Z,16.57
2018-04-24T17:04:45.036Z,16.51
2018-04-24T17:07:12.446Z,16.48
2018-04-24T17:09:39.860Z,16.41
2018-04-24T17:12:07.304Z,16.43
2018-04-24T17:14:34.712Z,16.37
2018-04-24T17:17:02.147Z,16.36
2018-04-24T17:19:29.585Z,16.31
2018-04-24T17:21:57.276Z,16.21
2018-04-24T17:24:24.698Z,16.16
2018-04-24T17:26:52.124Z,16.10
2018-04-24T17:29:19.621Z,16.07
2018-04-24T17:31:47.037Z,15.99
2018-04-24T17:34:14.472Z,15.96
2018-04-24T17:36:41.903Z,15.94
2018-04-24T17:39:09.307Z,15.91
2018-04-24T17:41:36.791Z,15.91
2018-04-24T17:44:04.211Z,15.87
2018-04-24T17:46:31.653Z,15.81
2018-04-24T17:48:59.061Z,15.79
2018-04-24T17:51:26.500Z,15.77
2018-04-24T17:53:53.908Z,15.77
2018-04-24T17:56:22.043Z,15.76
2018-04-24T17:58:49.475Z,15.74
2018-04-24T18:01:16.884Z,15.69
2018-04-24T18:03:44.316Z,15.65
2018-04-24T18:06:11.720Z,15.62
2018-04-24T18:08:39.143Z,15.59
2018-04-24T18:11:06.630Z,15.56
2018-04-24T18:13:34.057Z,15.53
2018-04-24T18:16:01.468Z,15.50
2018-04-24T18:18:28.898Z,15.46
2018-04-24T18:20:56.317Z,15.43
2018-04-24T18:23:24.181Z,15.36
2018-04-24T18:25:51.628Z,15.34
2018-04-24T18:28:19.158Z,15.31
2018-04-24T18:30:46.588Z,15.28
2018-04-24T18:33:14.008Z,15.28
2018-04-24T18:38:32.779Z,15.27
2018-04-24T18:41:00.191Z,15.25
2018-04-24T18:43:27.619Z,15.23
2018-04-24T18:45:55.047Z,15.22
2018-04-24T18:48:22.469Z,15.21
2018-04-24T18:50:49.970Z,15.17
2018-04-24T18:53:17.387Z,15.17
2018-04-24T18:55:44.813Z,15.17
2018-04-24T18:58:12.239Z,15.16
2018-04-24T19:00:39.647Z,15.16
2018-04-24T19:03:07.075Z,15.16
2018-04-24T19:05:34.507Z,15.14
2018-04-24T19:08:02.018Z,15.13
2018-04-24T19:10:29.992Z,15.11
2018-04-24T19:12:57.649Z,15.10
2018-04-24T19:15:25.080Z,15.09
2018-04-24T19:17:52.523Z,15.09
2018-04-24T19:20:19.960Z,15.05
2018-04-24T19:22:47.484Z,15.04
2018-04-24T19:25:20.463Z,15.04
2018-04-24T19:27:47.910Z,15.04
2018-04-24T19:30:15.394Z,15.04
2018-04-24T19:32:42.835Z,15.05
2018-04-24T19:35:10.275Z,15.02
2018-04-24T19:37:37.995Z,15.04
2018-04-24T19:40:11.175Z,14.99
2018-04-24T19:42:38.647Z,14.99
2018-04-24T19:45:06.316Z,14.99
2018-04-24T19:47:33.723Z,14.98
2018-04-24T19:50:06.694Z,14.96
2018-04-24T19:52:34.123Z,14.93
2018-04-24T19:55:07.463Z,14.93
2018-04-24T19:57:34.880Z,14.90
2018-04-24T20:00:02.314Z,14.90
2018-04-24T20:02:30.078Z,14.90
2018-04-24T20:04:57.491Z,14.89
2018-04-24T20:07:24.913Z,14.86
2018-04-24T20:09:52.345Z,14.88
2018-04-24T20:12:19.752Z,14.88
2018-04-24T20:14:47.196Z,14.87
2018-04-24T20:17:14.604Z,14.87
2018-04-24T20:19:42.030Z,14.86
2018-04-24T20:22:09.465Z,14.83
2018-04-24T20:24:36.951Z,14.83
2018-04-24T20:27:04.364Z,14.83
2018-04-24T20:29:31.791Z,14.85
2018-04-24T20:31:59.217Z,14.82
2018-04-24T20:34:26.636Z,14.81
2018-04-24T20:36:54.060Z,14.80
2018-04-24T20:39:21.483Z,14.81
2018-04-24T20:41:48.919Z,14.76
2018-04-24T20:44:16.328Z,14.77
2018-04-24T20:46:44.703Z,14.74
2018-04-24T20:49:12.107Z,14.70
2018-04-24T20:51:39.681Z,14.68
2018-04-24T20:54:07.130Z,14.66
2018-04-24T20:56:34.666Z,14.63
2018-04-24T20:59:02.098Z,14.64
2018-04-24T21:01:29.508Z,14.63
2018-04-24T21:03:56.923Z,14.66
2018-04-24T21:06:24.596Z,14.63
2018-04-24T21:08:52.050Z,14.63
2018-04-24T21:11:19.450Z,14.63
2018-04-24T21:13:46.896Z,14.64
2018-04-24T21:16:14.304Z,14.64
2018-04-24T21:18:41.720Z,14.64
2018-04-24T21:21:09.140Z,14.62
2018-04-24T21:23:36.560Z,14.63
2018-04-24T21:26:04.029Z,14.63
2018-04-24T21:28:31.398Z,14.62
2018-04-24T21:30:58.809Z,14.57
2018-04-24T21:33:26.605Z,14.52
2018-04-24T21:35:53.973Z,14.55
2018-04-24T21:38:21.388Z,14.52
2018-04-24T21:40:48.956Z,14.53
2018-04-24T21:43:16.364Z,14.57
2018-04-24T21:45:43.772Z,14.59
2018-04-24T21:48:11.188Z,14.58
2018-04-24T21:50:38.602Z,14.59
2018-04-24T21:53:06.044Z,14.59
2018-04-24T21:55:33.456Z,14.59
2018-04-24T21:58:00.871Z,14.58
2018-04-24T22:00:28.295Z,14.55
2018-04-24T22:02:55.709Z,14.52
2018-04-24T22:05:23.479Z,14.47
2018-04-24T22:07:50.893Z,14.44
2018-04-24T22:10:18.297Z,14.43
2018-04-24T22:12:45.721Z,14.44
2018-04-24T22:15:13.135Z,14.44
2018-04-24T22:17:40.560Z,14.44
2018-04-24T22:20:07.996Z,14.45
2018-04-24T22:22:35.402Z,14.48
2018-04-24T22:25:02.800Z,14.48
2018-04-24T22:27:30.490Z,14.50
2018-04-24T22:29:57.901Z,14.54
2018-04-24T22:32:25.341Z,14.56
2018-04-24T22:34:52.751Z,14.58
2018-04-24T22:37:20.161Z,14.61
2018-04-24T22:39:47.594Z,14.58
2018-04-24T22:42:15.013Z,14.58
2018-04-24T22:44:42.446Z,14.58
2018-04-24T22:47:09.864Z,14.55
2018-04-24T22:49:37.304Z,14.52
2018-04-24T22:52:04.724Z,14.50
2018-04-24T22:54:32.128Z,14.52
2018-04-24T22:56:59.557Z,14.52
2018-04-24T22:59:27.319Z,14.48
2018-04-24T23:01:54.719Z,14.51
2018-04-24T23:04:22.161Z,14.54
2018-04-24T23:06:49.908Z,14.53
2018-04-24T23:09:17.320Z,14.55
2018-04-24T23:11:56.940Z,14.57
2018-04-24T23:14:35.916Z,14.61
2018-04-24T23:17:15.223Z,14.63
2018-04-24T23:19:54.523Z,14.63
2018-04-24T23:22:31.407Z,14.68
2018-04-24T23:24:58.848Z,14.67
2018-04-24T23:27:26.270Z,14.65
2018-04-24T23:29:53.684Z,14.71
2018-04-24T23:32:21.098Z,14.75
2018-04-24T23:34:48.545Z,14.78
2018-04-24T23:37:15.951Z,14.77
2018-04-24T23:39:43.372Z,14.79
2018-04-24T23:42:10.784Z,14.79
2018-04-24T23:44:38.212Z,14.80
2018-04-24T23:47:05.640Z,14.81
2018-04-24T23:49:33.071Z,14.83
2018-04-24T23:52:00.476Z,14.85
2018-04-24T23:54:27.899Z,14.84
2018-04-24T23:56:55.303Z,14.85
2018-04-24T23:59:22.723Z,14.85
